Rosamond, CA (93560)

4:28 PM PST on January 19, 2017 (GMT -0800)
Rosamond - KI6VBC | | Change Station

Elev 2415 ft 34.87 °N, 118.15 °W | Updated 31 seconds ago

Partly Cloudy
Partly Cloudy
51.5 °F
Feels Like 51.5 °F
N
0.0
Wind Variable Wind from North
Gusts 16.0 mph

Today
High -- | Low -- °F
--% Chance of Precip.
Yesterday
High -- | Low -- °F
Precip. -- in
Pressure 29.86 in
Visibility 10.0 miles
Clouds Mostly Cloudy 3500 ft
Overcast 4600 ft
Dew Point 36 °F
Humidity 56%
Rainfall 0.20 in
Snow Depth Not available.
6:58 AM 5:08 PM
Waning Gibbous, 49% visible
METAR KWJF 192356Z 27013KT 10SM BKN035 OVC046 10/03 A2985 RMK AO2 PK WND 26026/2320 SLP111 T01000033 10128 20100 55006
Pressure 29.86 in
Visibility 10.0 miles
Clouds Mostly Cloudy 3500 ft
Overcast 4600 ft
Dew Point 36 °F
Humidity 56%
Rainfall 0.20 in
Snow Depth Not available.
6:58 AM 5:08 PM
Waning Gibbous, 49% visible
METAR KWJF 192356Z 27013KT 10SM BKN035 OVC046 10/03 A2985 RMK AO2 PK WND 26026/2320 SLP111 T01000033 10128 20100 55006

Get Your Daily Forecast Email!

Thanks for signing up!

Be on the lookout for a verification email in your inbox.

You'll start receiving the daily forecast at 8 AM.

×

10-Day Weather Forecast

Almanac

Astronomy

Jan. 19, 2017 Rise Set
Actual Time
Civil Twilight
Nautical Twilight
Astronomical Twilight
Moon
Length of Visible Light
Length of Day
Tomorrow will be .
, % of the Moon is Illuminated

Today's Extremes

State Highs State Lows

Community

WunderPhotos

Upload Photos

1,962,540 photos uploaded!

WunderBlog® & News

Nearby

Air Quality

  Air Quality AQ Index Pollutant
Not available.

Snow Depth

Station Depth Elevation

Earthquake Activity

City Distance Mag. Time & Date
Minimum magnitude displayed is 2.5.

Coastal Water Temperatures

Place Temperature

Stations

Nearby Weather Stations

Station Location Temp. Windchill Dew Point Humidity Wind Precip. Elev Updated Type
                   

Watches & Warnings

Small Craft Advisory, Gale Warning
Issued: 2:10 PM PST Jan. 19, 2017 – National Weather Service

... Small Craft Advisory remains in effect until 10 am PST
Friday...
... Gale Warning remains in effect from 10 am to 9 PM PST Friday...

* winds... southwest to west winds 20 to 30 kt with gusts to 35 kt
are expected when winds are strongest.

* Seas... combined seas of 12 to 15 feet with periods around 17 seconds
are expected when waves are largest.

See the coastal waters forecast (cwflox) for more details.

Precautionary/preparedness actions...

A Gale Warning means winds of 34 to 47 knots are imminent or
occuring. Operating a vessel in gale conditions requires
experience and properly equipped vessels. It is highly
recommended that mariners without the proper experience seek safe
Harbor prior to the onset of gale conditions.

A Small Craft Advisory means that hazardous sea conditions will
exist for small craft. Inexperienced mariners... especially those
operating smaller vessels should avoid navigating in these
conditions.